Time;durP1;ratioP1;P1;durP2;ratioP2;P2;SDS_P1;SDS_P2;PMS_P1;PMS_P2;Temp;Humidity;BMP_temperature;BMP_pressure;BME280_temperature;BME280_humidity;BME280_pressure;Samples;Min_cycle;Max_cycle;Signal;HPM_P1;HPM_P2
2022/10/30 00:01:55;;;;;;;13.77;7.10;;;;;;;14.13;nan;99843.00;4977643;28;20533;-83
2022/10/30 00:04:20;;;;;;;14.97;6.70;;;;;;;14.16;nan;99861.25;4977825;28;20261;-81
2022/10/30 00:06:47;;;;;;;8.20;5.70;;;;;;;14.16;nan;99855.97;4977659;28;20216;-81
2022/10/30 00:09:12;;;;;;;7.10;6.40;;;;;;;14.17;nan;99857.66;4976564;28;20672;-82
2022/10/30 00:11:39;;;;;;;7.93;6.50;;;;;;;14.15;nan;99856.94;4975928;28;20191;-81
2022/10/30 00:14:04;;;;;;;8.90;7.75;;;;;;;14.14;nan;99860.53;4975741;28;20192;-83
2022/10/30 00:16:30;;;;;;;9.47;5.90;;;;;;;14.14;nan;99860.53;4977761;28;20210;-81
2022/10/30 00:18:55;;;;;;;6.83;5.93;;;;;;;14.13;nan;99861.50;4975616;28;20677;-80
2022/10/30 00:21:21;;;;;;;8.03;5.50;;;;;;;14.11;nan;99860.75;4978351;28;20414;-81
2022/10/30 00:23:51;;;;;;;11.93;7.10;;;;;;;14.07;nan;99859.28;4977077;28;20218;-81
2022/10/30 00:26:19;;;;;;;11.75;6.43;;;;;;;14.05;nan;99862.06;4973154;28;20337;-81
2022/10/30 00:28:49;;;;;;;14.45;7.72;;;;;;;14.05;nan;99861.22;4972000;28;20183;-81
2022/10/30 00:31:14;;;;;;;15.38;9.15;;;;;;;14.02;nan;99849.06;4952649;28;20230;-81
2022/10/30 00:33:39;;;;;;;16.50;8.80;;;;;;;14.02;nan;99853.53;4967193;28;20599;-83
2022/10/30 00:36:05;;;;;;;20.10;8.77;;;;;;;14.04;nan;99862.16;4966644;28;20223;-82
2022/10/30 00:38:31;;;;;;;12.93;9.43;;;;;;;14.04;nan;99859.50;4952447;28;20295;-81
2022/10/30 00:40:56;;;;;;;11.37;8.67;;;;;;;14.04;nan;99859.50;4969410;28;20737;-82
2022/10/30 00:43:34;;;;;;;20.75;9.35;;;;;;;14.04;nan;99843.66;4970081;28;20727;-81
2022/10/30 00:46:06;;;;;;;13.65;7.60;;;;;;;14.02;nan;99841.16;4973604;28;20199;-83
2022/10/30 00:48:33;;;;;;;16.80;7.93;;;;;;;14.01;nan;99843.91;4965617;28;20212;-83
2022/10/30 00:51:00;;;;;;;11.95;8.23;;;;;;;13.97;nan;99843.28;4913136;28;20883;-83
2022/10/30 00:53:28;;;;;;;21.10;9.15;;;;;;;13.97;nan;99847.72;4997707;28;20405;-81
2022/10/30 00:55:59;;;;;;;11.18;8.00;;;;;;;13.90;nan;99844.69;4994370;28;20184;-83
2022/10/30 00:58:30;;;;;;;11.90;7.15;;;;;;;13.85;nan;99839.75;4981676;28;20720;-81
2022/10/30 01:00:59;;;;;;;8.05;6.05;;;;;;;13.80;nan;99831.34;4996048;28;20608;-83
2022/10/30 01:03:26;;;;;;;11.18;6.70;;;;;;;13.77;nan;99834.22;4982057;28;20506;-82
2022/10/30 01:05:57;;;;;;;11.00;7.10;;;;;;;13.75;nan;99832.63;4979802;28;20214;-82
2022/10/30 01:08:23;;;;;;;9.55;6.75;;;;;;;13.68;nan;99837.50;4982588;28;20207;-83
2022/10/30 01:10:49;;;;;;;13.50;6.60;;;;;;;13.64;nan;99834.25;4997174;28;20668;-82
2022/10/30 01:13:16;;;;;;;9.70;7.30;;;;;;;13.58;nan;99825.91;4983671;28;20183;-82
2022/10/30 01:15:58;;;;;;;10.68;6.60;;;;;;;13.58;nan;99823.28;4995398;28;20438;-83
2022/10/30 01:18:34;;;;;;;7.10;6.40;;;;;;;13.57;nan;99830.34;4998884;28;20237;-83
2022/10/30 01:21:09;;;;;;;12.77;6.40;;;;;;;13.57;nan;99819.81;4984118;28;20186;-83
2022/10/30 01:23:48;;;;;;;9.15;5.75;;;;;;;13.56;nan;99823.41;4996894;28;20646;-82
2022/10/30 01:26:48;;;;;;;11.93;6.65;;;;;;;13.58;nan;99824.13;4983576;28;20191;-82
2022/10/30 01:29:42;;;;;;;11.00;7.57;;;;;;;13.54;nan;99819.19;4982530;28;20616;-81
2022/10/30 01:32:25;;;;;;;9.85;5.78;;;;;;;13.49;nan;99822.16;5000246;28;20246;-84
2022/10/30 01:35:07;;;;;;;8.90;6.28;;;;;;;13.45;nan;99826.81;4983031;28;20633;-83
2022/10/30 01:38:00;;;;;;;12.18;6.20;;;;;;;13.43;nan;99815.53;4986472;28;20223;-82
2022/10/30 01:40:27;;;;;;;6.05;4.57;;;;;;;13.43;nan;99817.31;4981544;28;20226;-83
2022/10/30 01:42:56;;;;;;;13.00;6.07;;;;;;;13.42;nan;99813.84;4980737;28;20862;-81
2022/10/30 01:45:45;;;;;;;7.35;4.65;;;;;;;13.42;nan;99816.50;4984302;28;20217;-83
2022/10/30 01:48:36;;;;;;;11.10;5.85;;;;;;;13.42;nan;99816.50;4984299;28;20238;-81
2022/10/30 01:51:44;;;;;;;8.73;6.43;;;;;;;13.40;nan;99814.91;4997723;28;20203;-83
2022/10/30 01:54:22;;;;;;;8.32;5.15;;;;;;;13.40;nan;99809.63;4950157;28;21077;-81
2022/10/30 01:57:06;;;;;;;9.68;5.53;;;;;;;13.30;nan;99804.16;4983411;28;20211;-82
2022/10/30 01:59:38;;;;;;;10.05;5.45;;;;;;;13.22;nan;99798.56;5002123;28;20620;-82
2022/10/30 02:02:06;;;;;;;9.93;5.95;;;;;;;13.18;nan;99797.97;5000219;28;20373;-81
2022/10/30 02:04:32;;;;;;;7.07;5.40;;;;;;;13.15;nan;99797.31;4988248;28;20183;-82
2022/10/30 02:06:57;;;;;;;13.50;6.97;;;;;;;13.14;nan;99801.75;4989387;28;20486;-82
2022/10/30 02:09:23;;;;;;;7.93;4.90;;;;;;;13.15;nan;99803.44;4987703;28;20206;-82
2022/10/30 02:11:51;;;;;;;7.22;5.78;;;;;;;13.15;nan;99800.81;4987203;28;20672;-82
2022/10/30 02:14:30;;;;;;;7.00;5.43;;;;;;;13.11;nan;99787.94;4985154;28;20184;-81
2022/10/30 02:16:59;;;;;;;10.18;7.15;;;;;;;13.07;nan;99790.81;4987347;28;20556;-82
2022/10/30 02:19:24;;;;;;;9.27;6.43;;;;;;;13.04;nan;99796.31;5001533;28;20386;-83
2022/10/30 02:21:50;;;;;;;7.50;6.07;;;;;;;13.04;nan;99801.56;4994745;28;20184;-81
2022/10/30 02:24:16;;;;;;;7.83;5.13;;;;;;;13.07;nan;99796.09;4987789;28;20202;-81
2022/10/30 02:26:41;;;;;;;11.00;6.30;;;;;;;13.10;nan;99797.66;4986576;28;20588;-82
2022/10/30 02:29:07;;;;;;;5.97;4.57;;;;;;;13.12;nan;99806.28;4987998;28;20262;-81
2022/10/30 02:31:33;;;;;;;7.30;5.10;;;;;;;13.11;nan;99806.41;4982433;28;20442;-82
2022/10/30 02:33:58;;;;;;;8.10;5.00;;;;;;;13.06;nan;99810.19;4989849;28;20204;-81
2022/10/30 02:36:24;;;;;;;5.07;4.53;;;;;;;13.01;nan;99816.75;5001861;28;20330;-81
2022/10/30 02:38:51;;;;;;;7.75;5.25;;;;;;;12.98;nan;99809.91;4986496;28;20667;-82
2022/10/30 02:41:17;;;;;;;6.50;5.17;;;;;;;12.96;nan;99808.31;4989188;28;20308;-83
2022/10/30 02:43:42;;;;;;;6.87;5.03;;;;;;;12.95;nan;99809.28;4988169;28;20237;-81
2022/10/30 02:46:07;;;;;;;7.97;5.70;;;;;;;12.92;nan;99807.69;4986384;28;20641;-81
2022/10/30 02:48:33;;;;;;;6.47;5.87;;;;;;;12.88;nan;99808.00;4986607;28;20626;-83
2022/10/30 02:51:03;;;;;;;11.03;6.40;;;;;;;12.83;nan;99808.34;5000158;28;20211;-81
2022/10/30 02:53:30;;;;;;;9.00;5.13;;;;;;;12.81;nan;99812.88;4988679;28;20180;-81
2022/10/30 02:55:55;;;;;;;6.88;5.85;;;;;;;12.77;nan;99814.03;4985183;28;20194;-82
2022/10/30 02:58:21;;;;;;;11.63;6.07;;;;;;;12.75;nan;99810.69;4985015;28;20199;-83
2022/10/30 03:00:47;;;;;;;11.00;5.47;;;;;;;12.73;nan;99812.56;4987727;28;20445;-81
2022/10/30 03:03:13;;;;;;;8.85;6.10;;;;;;;12.68;nan;99812.03;4983039;28;20642;-81
2022/10/30 03:05:39;;;;;;;11.03;5.00;;;;;;;12.65;nan;99804.34;4986356;28;20187;-83
2022/10/30 03:08:04;;;;;;;11.77;6.20;;;;;;;12.61;nan;99812.47;5003128;28;20211;-82
2022/10/30 03:10:30;;;;;;;9.63;5.13;;;;;;;12.59;nan;99808.25;5000544;28;20211;-81
2022/10/30 03:12:57;;;;;;;7.00;5.07;;;;;;;12.56;nan;99811.13;4987851;28;20179;-83
2022/10/30 03:15:22;;;;;;;8.80;6.00;;;;;;;12.56;nan;99811.94;5001418;28;20187;-81
2022/10/30 03:17:51;;;;;;;9.50;5.30;;;;;;;12.50;nan;99815.00;4988201;28;20203;-82
2022/10/30 03:20:17;;;;;;;9.05;5.70;;;;;;;12.43;nan;99819.00;5003754;28;20270;-82
2022/10/30 03:22:42;;;;;;;6.70;4.97;;;;;;;12.42;nan;99817.28;5003584;28;20215;-81
2022/10/30 03:25:08;;;;;;;5.40;4.67;;;;;;;12.43;nan;99824.28;5000343;28;20229;-81
2022/10/30 03:27:33;;;;;;;7.03;4.63;;;;;;;12.40;nan;99824.47;4985648;28;20269;-82
2022/10/30 03:29:59;;;;;;;4.83;3.70;;;;;;;12.37;nan;99819.44;4986006;28;20215;-81
2022/10/30 03:32:24;;;;;;;8.23;4.97;;;;;;;12.35;nan;99819.50;4999574;28;20550;-82
2022/10/30 03:34:52;;;;;;;16.85;6.25;;;;;;;12.36;nan;99821.19;4989908;28;20187;-82
2022/10/30 03:37:17;;;;;;;8.07;5.43;;;;;;;12.33;nan;99821.41;4999205;28;20234;-83
2022/10/30 03:39:43;;;;;;;6.57;4.73;;;;;;;12.31;nan;99814.53;4988807;28;20191;-81
2022/10/30 03:42:08;;;;;;;17.83;5.30;;;;;;;12.29;nan;99825.22;5003155;28;20191;-81
2022/10/30 03:44:34;;;;;;;11.13;5.47;;;;;;;12.31;nan;99811.91;4986832;28;20249;-80
2022/10/30 03:47:01;;;;;;;10.75;4.38;;;;;;;12.32;nan;99816.25;4984914;28;20295;-80
2022/10/30 03:49:46;;;;;;;7.50;4.43;;;;;;;12.30;nan;99820.78;5001817;28;20211;-80
2022/10/30 03:52:16;;;;;;;7.78;5.65;;;;;;;12.27;nan;99816.56;4985016;28;20931;-81
2022/10/30 03:54:41;;;;;;;9.43;4.33;;;;;;;12.24;nan;99823.84;4987785;28;20233;-80
2022/10/30 03:57:08;;;;;;;5.35;4.50;;;;;;;12.23;nan;99824.75;4988276;28;20738;-82
2022/10/30 03:59:57;;;;;;;7.03;4.78;;;;;;;12.21;nan;99816.13;4985609;28;20179;-80
2022/10/30 04:02:44;;;;;;;7.75;4.03;;;;;;;12.20;nan;99827.59;5000751;28;20190;-84
2022/10/30 04:05:10;;;;;;;7.25;4.07;;;;;;;12.19;nan;99826.75;4989922;28;20659;-83
2022/10/30 04:07:35;;;;;;;7.07;4.23;;;;;;;12.13;nan;99817.50;5003230;28;20207;-80
2022/10/30 04:10:01;;;;;;;5.67;4.53;;;;;;;12.07;nan;99823.16;4985663;28;20710;-82
2022/10/30 04:12:27;;;;;;;4.53;4.07;;;;;;;12.06;nan;99820.63;4981864;28;20324;-83
2022/10/30 04:14:53;;;;;;;7.03;4.40;;;;;;;12.04;nan;99822.50;4986215;28;20179;-80
2022/10/30 04:17:18;;;;;;;8.43;4.23;;;;;;;12.02;nan;99822.63;4983198;28;20812;-80
2022/10/30 04:19:43;;;;;;;5.40;3.70;;;;;;;12.00;nan;99818.41;4983782;28;20382;-83
2022/10/30 04:22:09;;;;;;;6.43;3.77;;;;;;;11.98;nan;99820.28;4985094;28;20191;-83
2022/10/30 04:24:34;;;;;;;5.50;4.70;;;;;;;11.97;nan;99816.81;4983306;28;20182;-81
2022/10/30 04:27:00;;;;;;;9.27;4.80;;;;;;;11.97;nan;99822.09;4982153;28;20207;-81
2022/10/30 04:29:26;;;;;;;6.90;5.03;;;;;;;11.93;nan;99817.94;4985829;28;20528;-80
2022/10/30 04:31:51;;;;;;;6.00;4.30;;;;;;;11.91;nan;99812.81;4985209;28;20187;-82
2022/10/30 04:34:17;;;;;;;10.37;4.27;;;;;;;11.92;nan;99818.91;4981723;28;20187;-80
2022/10/30 04:36:42;;;;;;;7.13;4.07;;;;;;;11.94;nan;99824.91;4981496;28;20219;-80
2022/10/30 04:39:08;;;;;;;15.20;4.93;;;;;;;11.97;nan;99829.13;4983436;28;20270;-83
2022/10/30 04:41:34;;;;;;;6.60;4.73;;;;;;;11.93;nan;99824.06;4982993;28;20176;-80
2022/10/30 04:44:09;;;;;;;5.93;4.80;;;;;;;11.90;nan;99824.25;4980500;28;20488;-82
2022/10/30 04:46:35;;;;;;;10.40;3.70;;;;;;;11.91;nan;99822.50;4986952;28;20698;-81
2022/10/30 04:49:07;;;;;;;10.00;3.88;;;;;;;11.92;nan;99821.53;4989413;28;20232;-80
2022/10/30 04:51:33;;;;;;;9.50;4.05;;;;;;;11.91;nan;99827.75;4983766;28;20230;-82
2022/10/30 04:53:59;;;;;;;5.95;5.00;;;;;;;11.91;nan;99819.88;4986914;28;20906;-81
2022/10/30 04:56:28;;;;;;;10.93;6.07;;;;;;;11.85;nan;99823.69;4992387;28;20203;-81
2022/10/30 04:58:53;;;;;;;9.80;5.03;;;;;;;11.84;nan;99818.53;5005889;28;20622;-80
2022/10/30 05:01:19;;;;;;;10.20;4.90;;;;;;;11.84;nan;99818.53;4987768;28;20698;-81
2022/10/30 05:03:44;;;;;;;9.30;4.47;;;;;;;11.81;nan;99822.22;4989837;28;20188;-83
2022/10/30 05:06:23;;;;;;;6.57;4.40;;;;;;;11.77;nan;99828.59;4989843;28;20341;-80
2022/10/30 05:08:49;;;;;;;6.97;5.10;;;;;;;11.77;nan;99822.50;5001663;28;20237;-82
2022/10/30 05:11:36;;;;;;;7.55;4.15;;;;;;;11.76;nan;99820.81;4986390;28;20230;-83
2022/10/30 05:14:01;;;;;;;6.17;3.90;;;;;;;11.76;nan;99813.75;4988911;28;20618;-81
2022/10/30 05:16:27;;;;;;;6.37;4.60;;;;;;;11.76;nan;99811.13;4998498;28;20241;-83
2022/10/30 05:18:53;;;;;;;9.07;4.60;;;;;;;11.77;nan;99822.50;5003530;28;20179;-82
2022/10/30 05:21:20;;;;;;;11.52;4.25;;;;;;;11.79;nan;99812.72;4988490;28;20171;-80
2022/10/30 05:23:45;;;;;;;7.47;4.63;;;;;;;11.81;nan;99816.09;4987754;28;20191;-83
2022/10/30 05:26:11;;;;;;;9.50;5.30;;;;;;;11.79;nan;99813.56;4987813;28;20281;-83
2022/10/30 05:28:36;;;;;;;5.00;4.10;;;;;;;11.74;nan;99803.31;4984188;28;20183;-80
2022/10/30 05:31:02;;;;;;;8.98;5.18;;;;;;;11.74;nan;99808.59;4985051;28;20274;-83
2022/10/30 05:33:46;;;;;;;6.85;4.20;;;;;;;11.75;nan;99804.19;5006073;28;20201;-83
2022/10/30 05:36:12;;;;;;;7.10;4.63;;;;;;;11.72;nan;99813.13;4986657;28;20191;-80
2022/10/30 05:38:37;;;;;;;7.53;4.30;;;;;;;11.66;nan;99810.88;4971010;28;20432;-82
2022/10/30 05:41:06;;;;;;;5.63;3.92;;;;;;;11.61;nan;99807.72;4987669;28;20356;-82
2022/10/30 05:43:31;;;;;;;6.10;3.50;;;;;;;11.59;nan;99812.25;4986335;28;20266;-80
2022/10/30 05:45:57;;;;;;;6.00;4.13;;;;;;;11.59;nan;99811.41;4984181;28;20186;-80
2022/10/30 05:48:22;;;;;;;7.73;3.50;;;;;;;11.59;nan;99808.78;4984565;28;20215;-80
2022/10/30 05:50:48;;;;;;;7.72;4.53;;;;;;;11.60;nan;99803.38;5001683;28;20207;-80
2022/10/30 05:53:32;;;;;;;5.32;3.42;;;;;;;11.63;nan;99808.44;4985439;28;20214;-81
2022/10/30 05:55:58;;;;;;;4.30;2.92;;;;;;;11.62;nan;99808.56;4986520;28;20211;-82
2022/10/30 05:58:28;;;;;;;5.15;3.47;;;;;;;11.59;nan;99812.25;4981859;28;20238;-80
2022/10/30 06:00:55;;;;;;;7.50;3.78;;;;;;;11.54;nan;99810.84;4988434;28;20184;-80
2022/10/30 06:03:35;;;;;;;5.05;3.83;;;;;;;11.49;nan;99816.41;4985774;28;20183;-80
2022/10/30 06:06:00;;;;;;;6.40;3.70;;;;;;;11.48;nan;99818.19;4985968;28;20245;-80
2022/10/30 06:08:26;;;;;;;6.00;3.33;;;;;;;11.46;nan;99820.06;4984521;28;20447;-82
2022/10/30 06:10:55;;;;;;;4.72;4.10;;;;;;;11.44;nan;99823.72;4983888;28;20825;-82
2022/10/30 06:13:24;;;;;;;7.35;5.18;;;;;;;11.41;nan;99816.03;4975819;28;20187;-83
2022/10/30 06:15:59;;;;;;;5.88;3.45;;;;;;;11.39;nan;99817.91;4985681;28;20719;-82
2022/10/30 06:18:35;;;;;;;7.93;4.60;;;;;;;11.41;nan;99823.94;4981732;28;20778;-81
2022/10/30 06:21:07;;;;;;;8.40;4.85;;;;;;;11.42;nan;99828.25;4982851;28;20179;-80
2022/10/30 06:23:47;;;;;;;6.30;3.65;;;;;;;11.44;nan;99824.56;4988579;28;20188;-80
2022/10/30 06:26:33;;;;;;;9.02;3.97;;;;;;;11.47;nan;99829.63;4966244;28;20230;-82
2022/10/30 06:29:04;;;;;;;4.55;3.25;;;;;;;11.49;nan;99824.28;4988071;28;20549;-82
2022/10/30 06:31:30;;;;;;;8.00;3.50;;;;;;;11.50;nan;99825.97;4992375;28;20207;-83
2022/10/30 06:33:57;;;;;;;6.38;3.92;;;;;;;11.54;nan;99835.38;4995905;28;20175;-80
2022/10/30 06:36:23;;;;;;;5.23;3.67;;;;;;;11.58;nan;99838.63;5002054;28;20190;-81
2022/10/30 06:38:48;;;;;;;5.47;3.40;;;;;;;11.59;nan;99832.44;4992713;28;20461;-83
2022/10/30 06:41:16;;;;;;;5.10;3.55;;;;;;;11.57;nan;99831.69;5006978;28;20187;-82
2022/10/30 06:43:59;;;;;;;7.32;3.60;;;;;;;11.57;nan;99832.53;4991308;28;20187;-80
2022/10/30 06:46:24;;;;;;;7.70;4.20;;;;;;;11.59;nan;99835.06;4990906;28;20222;-83
2022/10/30 06:48:50;;;;;;;3.53;3.10;;;;;;;11.59;nan;99829.81;4990240;28;20222;-80
2022/10/30 06:51:17;;;;;;;4.30;3.70;;;;;;;11.59;nan;99828.03;4991921;28;20487;-81
2022/10/30 06:53:44;;;;;;;4.75;4.00;;;;;;;11.57;nan;99832.53;4997464;28;20714;-82
2022/10/30 06:56:32;;;;;;;4.60;2.58;;;;;;;11.59;nan;99835.06;4992981;28;20235;-83
2022/10/30 06:59:21;;;;;;;10.20;5.00;;;;;;;11.64;nan;99839.09;4997483;28;20191;-83
2022/10/30 07:01:53;;;;;;;11.07;3.35;;;;;;;11.72;nan;99839.44;4988349;28;20179;-83
2022/10/30 07:04:22;;;;;;;4.47;3.28;;;;;;;11.80;nan;99845.97;4981466;28;20623;-80
2022/10/30 07:06:47;;;;;;;7.30;4.27;;;;;;;11.87;nan;99842.06;4973243;28;20211;-82
2022/10/30 07:09:13;;;;;;;10.17;4.37;;;;;;;11.95;nan;99837.13;4989433;28;20190;-82
2022/10/30 07:11:44;;;;;;;5.33;3.50;;;;;;;11.99;nan;99833.38;4988135;28;20286;-82
2022/10/30 07:14:39;;;;;;;3.83;2.95;;;;;;;12.04;nan;99836.50;4990060;28;20563;-83
2022/10/30 07:20:04;;;;;;;4.75;2.58;;;;;;;12.11;nan;99832.53;5390366;23;20779;-80
2022/10/30 07:22:30;;;;;;;4.70;3.50;;;;;;;12.17;nan;99834.75;4962099;28;20283;-82
2022/10/30 07:24:56;;;;;;;5.77;4.30;;;;;;;12.22;nan;99836.25;4959483;28;20239;-80
2022/10/30 07:27:32;;;;;;;13.07;4.72;;;;;;;12.26;nan;99841.22;4966388;28;20210;-80
2022/10/30 07:30:22;;;;;;;5.75;4.25;;;;;;;12.33;nan;99839.84;4981060;28;20215;-83
2022/10/30 07:33:14;;;;;;;5.20;3.70;;;;;;;12.43;nan;99842.72;4976020;28;20250;-81
2022/10/30 07:35:53;;;;;;;8.43;4.03;;;;;;;12.53;nan;99846.41;4974803;28;20194;-82
2022/10/30 07:38:57;;;;;;;6.35;4.20;;;;;;;12.66;nan;99845.56;4952456;28;20196;-80
2022/10/30 07:41:36;;;;;;;7.95;4.20;;;;;;;12.75;nan;99844.94;4951802;28;20195;-81
2022/10/30 07:44:34;;;;;;;7.72;4.30;;;;;;;12.84;nan;99849.56;4954533;28;20672;-82
2022/10/30 07:47:21;;;;;;;7.03;4.93;;;;;;;12.93;nan;99842.81;4973661;28;20222;-81
2022/10/30 07:50:11;;;;;;;13.82;4.53;;;;;;;13.04;nan;99848.19;4967055;28;20644;-81
2022/10/30 07:52:37;;;;;;;8.13;4.97;;;;;;;13.13;nan;99842.28;4973234;28;20184;-81
2022/10/30 07:55:04;;;;;;;8.03;4.70;;;;;;;13.19;nan;99847.09;4972543;28;20257;-81
2022/10/30 07:57:42;;;;;;;4.00;3.47;;;;;;;13.30;nan;99849.03;4974102;28;20223;-81
2022/10/30 08:00:37;;;;;;;10.80;5.85;;;;;;;13.42;nan;99852.56;4970836;28;20200;-81
2022/10/30 08:03:12;;;;;;;7.53;4.50;;;;;;;13.54;nan;99848.22;4978435;28;21070;-81
2022/10/30 08:05:53;;;;;;;7.43;4.82;;;;;;;13.67;nan;99851.66;4970870;28;20179;-80
2022/10/30 08:08:32;;;;;;;8.50;4.25;;;;;;;13.79;nan;99861.31;4978601;28;20194;-80
2022/10/30 08:11:07;;;;;;;8.95;5.03;;;;;;;13.91;nan;99856.94;4974380;28;20210;-81
2022/10/30 08:13:33;;;;;;;6.90;4.20;;;;;;;14.04;nan;99864.78;4977209;28;20192;-81
2022/10/30 08:15:58;;;;;;;7.63;5.07;;;;;;;14.13;nan;99861.50;4968980;28;20612;-81
2022/10/30 08:18:25;;;;;;;8.73;5.90;;;;;;;14.27;nan;99863.09;4967900;28;20326;-81
2022/10/30 08:20:50;;;;;;;10.23;7.82;;;;;;;14.42;nan;99863.72;4970582;28;20247;-82
2022/10/30 08:23:18;;;;;;;10.95;7.80;;;;;;;14.74;nan;99861.31;4972163;28;20188;-82
2022/10/30 08:25:44;;;;;;;9.55;7.07;;;;;;;15.58;nan;99854.69;4968995;28;20211;-82
2022/10/30 08:28:10;;;;;;;16.67;7.57;;;;;;;16.74;nan;99849.50;4975401;28;20782;-82
2022/10/30 08:30:37;;;;;;;8.43;7.63;;;;;;;17.99;nan;99851.91;4964143;28;20306;-80
2022/10/30 08:33:06;;;;;;;13.88;8.90;;;;;;;19.11;nan;99841.50;4963022;28;20181;-80
2022/10/30 08:35:52;;;;;;;9.48;6.53;;;;;;;20.19;nan;99831.84;4974124;28;20239;-80
2022/10/30 08:38:19;;;;;;;7.87;5.80;;;;;;;20.97;nan;99829.22;4974437;28;20584;-81
2022/10/30 08:40:51;;;;;;;8.33;6.80;;;;;;;21.72;nan;99832.03;4970576;28;21146;-80
2022/10/30 08:43:17;;;;;;;7.43;6.60;;;;;;;22.30;nan;99828.44;4974630;28;20447;-80
2022/10/30 08:45:43;;;;;;;12.13;6.40;;;;;;;22.72;nan;99830.06;4978957;28;20192;-81
2022/10/30 08:48:14;;;;;;;11.70;6.33;;;;;;;23.18;nan;99829.44;4972871;28;20454;-81
2022/10/30 08:50:41;;;;;;;9.10;6.90;;;;;;;;;;4970094;28;20470;-80
2022/10/30 08:53:09;;;;;;;9.17;6.40;;;;;;;;;;4977143;28;20430;-81
2022/10/30 08:55:34;;;;;;;9.17;7.57;;;;;;;;;;4974797;28;20811;-81
2022/10/30 08:58:02;;;;;;;6.97;6.10;;;;;;;;;;4973314;28;20431;-81
2022/10/30 09:00:28;;;;;;;9.37;6.60;;;;;;;;;;4976692;28;20420;-82
2022/10/30 09:03:11;;;;;;;8.57;6.33;;;;;;;;;;4982366;28;20674;-82
2022/10/30 09:05:42;;;;;;;7.07;6.00;;;;;;;;;;4983811;28;20738;-83
2022/10/30 09:08:19;;;;;;;9.03;5.10;;;;;;;;;;4984190;28;20701;-82
2022/10/30 09:11:16;;;;;;;9.13;5.23;;;;;;;;;;4990314;28;20447;-82
2022/10/30 09:13:52;;;;;;;8.53;6.30;;;;;;;;;;4985984;28;20440;-79
2022/10/30 09:16:18;;;;;;;6.17;5.53;;;;;;;;;;4968187;28;20459;-80
2022/10/30 09:18:43;;;;;;;9.20;6.77;;;;;;;;;;4981253;28;20290;-82
2022/10/30 09:21:09;;;;;;;7.00;5.73;;;;;;;;;;4985451;28;21086;-81
2022/10/30 09:23:41;;;;;;;9.07;6.50;;;;;;;;;;4983134;28;20215;-83
2022/10/30 09:26:42;;;;;;;16.60;6.13;;;;;;;;;;4967073;28;20435;-83
2022/10/30 09:29:12;;;;;;;8.50;6.63;;;;;;;;;;4978222;28;20428;-83
2022/10/30 09:31:56;;;;;;;10.30;6.67;;;;;;;;;;5003505;28;20424;-81
2022/10/30 09:34:24;;;;;;;11.03;6.70;;;;;;;;;;4993585;28;20502;-81
2022/10/30 09:37:19;;;;;;;7.07;5.43;;;;;;;;;;4995059;28;20464;-82
2022/10/30 09:39:47;;;;;;;8.40;6.10;;;;;;;;;;4985897;28;20923;-81
2022/10/30 09:42:32;;;;;;;9.00;7.40;;;;;;;;;;4992063;28;20442;-80
2022/10/30 09:45:23;;;;;;;8.90;6.00;;;;;;;;;;4987145;28;20453;-81
2022/10/30 09:48:07;;;;;;;10.50;6.37;;;;;;;;;;4988881;28;20433;-81
2022/10/30 09:50:54;;;;;;;9.20;5.70;;;;;;;;;;4991322;28;20459;-81
2022/10/30 09:53:37;;;;;;;10.40;6.47;;;;;;;;;;4990535;28;20439;-80
2022/10/30 09:56:14;;;;;;;10.80;7.83;;;;;;;;;;4982517;28;20450;-82
2022/10/30 09:58:52;;;;;;;7.80;5.13;;;;;;;;;;4983789;28;20553;-81
2022/10/30 10:01:30;;;;;;;8.50;5.80;;;;;;;;;;4977443;28;20449;-79
2022/10/30 10:04:19;;;;;;;8.13;6.40;;;;;;;;;;4976778;28;20437;-81
2022/10/30 10:06:47;;;;;;;9.43;6.30;;;;;;;;;;5001346;28;20466;-80
2022/10/30 10:09:38;;;;;;;9.20;6.13;;;;;;;;;;4982155;28;20434;-80
2022/10/30 10:12:28;;;;;;;5.27;4.77;;;;;;;;;;4991458;28;21018;-80
2022/10/30 10:14:55;;;;;;;7.10;5.90;;;;;;;;;;4999574;28;20409;-81
2022/10/30 10:17:40;;;;;;;7.10;5.73;;;;;;;;;;5001117;28;20478;-82
2022/10/30 10:20:25;;;;;;;8.50;6.37;;;;;;;;;;4999670;28;20757;-81
2022/10/30 10:22:50;;;;;;;9.70;6.47;;;;;;;;;;4984797;28;20453;-81
2022/10/30 10:25:22;;;;;;;7.73;6.00;;;;;;;;;;4984074;28;20798;-82
2022/10/30 10:27:52;;;;;;;12.43;7.13;;;;;;;;;;4999875;28;20208;-82
2022/10/30 10:30:24;;;;;;;7.30;5.33;;;;;;;;;;5004561;28;20714;-81
2022/10/30 10:32:50;;;;;;;6.70;4.97;;;;;;;;;;5000991;28;20552;-82
2022/10/30 10:35:25;;;;;;;13.10;5.47;;;;;;;;;;4995474;28;20819;-83
2022/10/30 10:37:50;;;;;;;8.30;5.80;;;;;;;;;;4993801;28;20735;-82
2022/10/30 10:40:29;;;;;;;8.30;6.20;;;;;;;;;;4982100;28;20519;-81
2022/10/30 10:43:09;;;;;;;6.67;4.77;;;;;;;;;;4997109;28;20591;-82
2022/10/30 10:45:55;;;;;;;;;;;;;;;;;;;;;
2022/10/30 10:52:07;;;;;;;11.57;5.03;;;;;;;;;;4962327;28;20469;-92
2022/10/30 10:59:07;;;;;;;9.13;4.43;;;;;;;;;;4912904;29;20404;-91
2022/10/30 11:09:21;;;;;;;;;;;;;;;;;;;;;
2022/10/30 11:25:49;;;;;;;6.60;5.17;;;;;;;;;;5040593;23;20495;-81
2022/10/30 11:28:25;;;;;;;5.40;4.37;;;;;;;;;;4992848;28;20642;-81
2022/10/30 11:30:56;;;;;;;6.20;5.10;;;;;;;;;;4995727;28;20211;-82
2022/10/30 11:33:22;;;;;;;9.20;4.17;;;;;;;;;;4983800;28;20445;-80
2022/10/30 11:35:47;;;;;;;7.40;4.17;;;;;;;;;;4995000;28;20412;-82
2022/10/30 11:38:25;;;;;;;10.00;4.73;;;;;;;;;;4995138;28;20556;-81
2022/10/30 11:40:51;;;;;;;5.83;4.33;;;;;;;;;;4988732;28;20545;-81
2022/10/30 11:43:19;;;;;;;6.60;4.60;;;;;;;;;;4987167;28;20447;-81
2022/10/30 11:45:44;;;;;;;8.27;4.00;;;;;;;;;;4985556;28;20280;-81
2022/10/30 11:48:15;;;;;;;16.10;6.20;;;;;;;;;;4985972;28;20828;-81
2022/10/30 11:50:44;;;;;;;5.40;4.83;;;;;;;;;;4990235;28;20211;-82
2022/10/30 11:53:11;;;;;;;7.13;5.03;;;;;;;;;;4989322;28;20943;-81
2022/10/30 11:55:43;;;;;;;10.03;5.00;;;;;;;;;;4989283;28;20455;-81
2022/10/30 11:58:19;;;;;;;6.37;4.87;;;;;;;;;;4989585;28;20921;-81
2022/10/30 12:00:44;;;;;;;5.00;4.30;;;;;;;;;;4989572;28;20534;-81
2022/10/30 12:03:26;;;;;;;9.10;4.40;;;;;;;;;;4987386;28;20551;-82
2022/10/30 12:06:05;;;;;;;7.30;5.63;;;;;;;;;;4989898;28;20190;-81
2022/10/30 12:08:30;;;;;;;10.37;4.60;;;;;;;;;;4988246;28;20420;-82
2022/10/30 12:10:57;;;;;;;6.40;3.80;;;;;;;;;;4990231;28;20481;-82
2022/10/30 12:13:23;;;;;;;4.30;3.40;;;;;;;;;;4987871;28;20189;-82
2022/10/30 12:15:50;;;;;;;6.70;4.20;;;;;;;;;;4990952;28;20486;-81
2022/10/30 12:18:18;;;;;;;7.60;4.43;;;;;;;;;;4988765;28;20632;-81
2022/10/30 12:20:45;;;;;;;10.00;5.40;;;;;;;;;;4988422;28;20445;-81
2022/10/30 12:23:15;;;;;;;8.93;4.40;;;;;;;;;;4988744;28;20442;-81
2022/10/30 12:25:45;;;;;;;10.23;4.87;;;;;;;;;;4991137;28;20553;-81
2022/10/30 12:28:15;;;;;;;5.17;4.20;;;;;;;;;;4987155;28;20479;-81
2022/10/30 12:30:45;;;;;;;6.20;3.50;;;;;;;;;;4987585;28;20447;-82
2022/10/30 12:33:13;;;;;;;6.03;4.23;;;;;;;;;;4990512;28;20419;-81
2022/10/30 12:35:55;;;;;;;7.80;3.87;;;;;;;;;;4986305;28;20429;-81
2022/10/30 12:38:32;;;;;;;6.20;4.60;;;;;;;;;;3611015;28;20001920;-81
2022/10/30 12:41:17;;;;;;;10.70;4.60;;;;;;;;;;4988958;28;20858;-81
2022/10/30 12:43:46;;;;;;;8.20;5.13;;;;;;;;;;4987654;28;20966;-82
2022/10/30 12:46:18;;;;;;;3.87;3.50;;;;;;;;;;4988223;28;20487;-81
2022/10/30 12:48:49;;;;;;;9.63;4.70;;;;;;;;;;4987518;28;20884;-81
2022/10/30 12:51:17;;;;;;;32.83;8.70;;;;;;;;;;4986160;28;20475;-81
2022/10/30 12:53:46;;;;;;;4.07;3.60;;;;;;;;;;4990739;28;20822;-82
2022/10/30 12:56:18;;;;;;;6.20;4.50;;;;;;;;;;4994336;28;20471;-82
2022/10/30 12:58:51;;;;;;;7.37;4.50;;;;;;;;;;4992588;28;20409;-82
2022/10/30 13:01:25;;;;;;;7.90;3.73;;;;;;;;;;4990018;28;20524;-82
2022/10/30 13:04:07;;;;;;;7.80;4.70;;;;;;;;;;4988129;28;20439;-81
2022/10/30 13:06:41;;;;;;;9.20;6.20;;;;;;;22.38;nan;99727.72;4979193;28;20317;-81
2022/10/30 13:09:25;;;;;;;8.53;4.57;;;;;;;22.43;nan;99728.06;4992502;28;20438;-82
2022/10/30 13:12:17;;;;;;;15.00;5.90;;;;;;;22.42;nan;99726.41;4994186;28;21025;-82
2022/10/30 13:15:00;;;;;;;6.43;4.90;;;;;;;22.45;nan;99718.00;4994157;28;20446;-82
2022/10/30 13:17:27;;;;;;;5.97;4.13;;;;;;;22.49;nan;99708.63;4976265;28;20469;-81
2022/10/30 13:19:53;;;;;;;3.90;3.50;;;;;;;22.52;nan;99724.34;4996406;28;20549;-80
2022/10/30 13:22:24;;;;;;;8.20;4.20;;;;;;;22.54;nan;99712.44;4992120;28;20515;-82
2022/10/30 13:24:52;;;;;;;4.97;3.97;;;;;;;22.57;nan;99718.47;4994689;28;20361;-82
2022/10/30 13:27:26;;;;;;;7.40;4.27;;;;;;;22.61;nan;99712.59;4994042;28;21012;-81